Time;durP1;ratioP1;P1;durP2;ratioP2;P2;SDS_P1;SDS_P2;PMS_P1;PMS_P2;Temp;Humidity;BMP_temperature;BMP_pressure;BME280_temperature;BME280_humidity;BME280_pressure;Samples;Min_cycle;Max_cycle;Signal;HPM_P1;HPM_P2
2021/03/06 00:00:36;;;;;;;9.75;2.65;;;0.10;97.90;;;;;;5110302;28;20032;-64
2021/03/06 00:03:02;;;;;;;15.48;3.92;;;0.10;97.50;;;;;;5110719;27;20494;-64
2021/03/06 00:05:29;;;;;;;11.77;2.50;;;0.00;97.30;;;;;;5107976;28;20439;-64
2021/03/06 00:07:54;;;;;;;9.35;1.95;;;0.20;97.80;;;;;;5111283;28;20039;-64
2021/03/06 00:10:21;;;;;;;10.95;2.65;;;0.00;98.00;;;;;;5108487;27;20035;-64
2021/03/06 00:12:48;;;;;;;8.95;3.30;;;0.10;97.70;;;;;;5109997;28;20036;-64
2021/03/06 00:15:18;;;;;;;7.15;1.75;;;0.10;97.70;;;;;;5109583;28;20048;-63
2021/03/06 00:17:44;;;;;;;7.28;1.80;;;0.20;97.90;;;;;;5110817;28;20122;-64
2021/03/06 00:20:10;;;;;;;6.20;2.70;;;0.00;97.90;;;;;;5110534;27;20043;-64
2021/03/06 00:22:36;;;;;;;12.02;1.88;;;0.00;97.90;;;;;;5107172;28;20027;-64
2021/03/06 00:25:06;;;;;;;10.57;1.92;;;0.00;98.00;;;;;;5110103;28;20035;-64
2021/03/06 00:27:32;;;;;;;6.85;2.45;;;0.10;98.20;;;;;;5110488;28;20179;-64
2021/03/06 00:29:58;;;;;;;10.77;2.03;;;0.00;98.40;;;;;;5108824;28;20051;-64
2021/03/06 00:32:23;;;;;;;10.63;2.22;;;0.10;98.50;;;;;;5109570;28;20039;-64
2021/03/06 00:34:49;;;;;;;18.17;2.42;;;0.00;98.40;;;;;;5111775;28;20047;-64
2021/03/06 00:37:15;;;;;;;8.52;1.75;;;0.10;98.60;;;;;;5107480;28;20067;-64
2021/03/06 00:39:41;;;;;;;10.70;2.90;;;0.10;98.60;;;;;;5107206;27;20482;-64
2021/03/06 00:42:06;;;;;;;6.13;1.67;;;0.10;98.40;;;;;;5110435;27;20083;-64
2021/03/06 00:44:32;;;;;;;9.00;1.80;;;0.00;98.40;;;;;;5107881;27;20032;-64
2021/03/06 00:46:58;;;;;;;6.82;1.90;;;0.00;98.40;;;;;;5106099;27;20055;-64
2021/03/06 00:49:24;;;;;;;6.45;2.20;;;0.20;98.70;;;;;;5108105;28;20035;-64
2021/03/06 00:51:50;;;;;;;9.18;1.75;;;0.10;98.80;;;;;;5109997;28;20148;-64
2021/03/06 00:54:16;;;;;;;5.88;2.15;;;0.10;98.40;;;;;;5109113;27;20456;-64
2021/03/06 00:56:42;;;;;;;7.82;1.60;;;0.00;98.20;;;;;;5110329;28;20588;-64
2021/03/06 00:59:08;;;;;;;8.65;1.55;;;0.00;98.20;;;;;;5109328;28;20115;-64
2021/03/06 01:01:34;;;;;;;3.58;1.17;;;0.00;98.00;;;;;;5107698;28;20036;-64
2021/03/06 01:03:59;;;;;;;9.57;2.22;;;-0.10;97.70;;;;;;5106885;27;20047;-64
2021/03/06 01:06:25;;;;;;;5.40;1.63;;;-0.10;98.00;;;;;;5109650;27;20027;-64
2021/03/06 01:08:51;;;;;;;5.03;1.65;;;-0.10;97.80;;;;;;5107058;28;20039;-64
2021/03/06 01:11:17;;;;;;;7.93;1.73;;;-0.10;98.10;;;;;;5110422;27;20481;-64
2021/03/06 01:13:42;;;;;;;8.77;2.08;;;-0.10;98.00;;;;;;5106706;27;20032;-64
2021/03/06 01:16:08;;;;;;;6.20;1.63;;;-0.10;98.20;;;;;;5111263;28;20090;-64
2021/03/06 01:18:34;;;;;;;10.80;2.22;;;-0.10;98.40;;;;;;5089346;28;20031;-64
2021/03/06 01:20:59;;;;;;;13.52;3.08;;;-0.10;98.60;;;;;;5108837;27;20039;-64
2021/03/06 01:23:25;;;;;;;12.07;3.88;;;-0.10;98.30;;;;;;5099479;27;20082;-64
2021/03/06 01:25:51;;;;;;;8.77;2.05;;;0.00;98.40;;;;;;5108114;28;20527;-64
2021/03/06 01:28:17;;;;;;;11.20;2.47;;;0.00;98.50;;;;;;5108753;28;20039;-64
2021/03/06 01:30:43;;;;;;;14.43;2.40;;;0.00;98.50;;;;;;5109106;28;20040;-64
2021/03/06 01:33:09;;;;;;;8.00;3.03;;;0.00;99.00;;;;;;5092594;28;20101;-64
2021/03/06 01:35:34;;;;;;;7.53;2.05;;;0.00;99.00;;;;;;5106051;28;20035;-64
2021/03/06 01:38:00;;;;;;;8.30;2.80;;;0.00;99.10;;;;;;5108287;28;20038;-64
2021/03/06 01:40:30;;;;;;;7.70;2.40;;;-0.10;99.20;;;;;;5107898;28;20408;-64
2021/03/06 01:42:57;;;;;;;17.05;3.00;;;0.10;99.10;;;;;;5106944;28;20039;-64
2021/03/06 01:45:23;;;;;;;11.50;2.90;;;0.00;99.30;;;;;;5107049;28;20055;-64
2021/03/06 01:47:50;;;;;;;12.30;2.80;;;0.10;99.90;;;;;;5105373;28;20083;-64
2021/03/06 01:50:21;;;;;;;12.00;3.67;;;0.10;99.80;;;;;;5109778;28;20439;-64
2021/03/06 01:52:48;;;;;;;9.68;4.10;;;0.10;99.60;;;;;;5107343;28;20054;-64
2021/03/06 01:55:15;;;;;;;6.20;2.85;;;0.00;99.80;;;;;;5108441;28;20035;-64
2021/03/06 01:57:42;;;;;;;14.02;3.67;;;0.10;99.40;;;;;;5105998;28;20036;-64
2021/03/06 02:00:08;;;;;;;11.05;2.95;;;0.20;99.90;;;;;;5110263;28;20478;-64
2021/03/06 02:02:34;;;;;;;8.80;3.03;;;0.20;99.80;;;;;;5105709;28;20101;-64
2021/03/06 02:05:00;;;;;;;11.45;3.40;;;0.20;99.50;;;;;;5111496;27;20039;-64
2021/03/06 02:07:26;;;;;;;8.82;3.72;;;0.20;99.80;;;;;;5111050;27;20035;-64
2021/03/06 02:09:51;;;;;;;8.52;3.40;;;0.20;99.70;;;;;;5110274;27;20035;-64
2021/03/06 02:12:50;;;;;;;5.40;2.72;;;0.30;99.90;;;;;;5109705;28;20044;-64
2021/03/06 02:15:19;;;;;;;10.13;3.20;;;0.20;99.90;;;;;;5112002;27;20107;-64
2021/03/06 02:17:57;;;;;;;10.30;2.70;;;0.30;99.90;;;;;;5110986;28;20047;-64
2021/03/06 02:20:37;;;;;;;12.38;3.10;;;0.30;99.90;;;;;;5110513;28;20425;-64
2021/03/06 02:23:22;;;;;;;10.00;3.10;;;0.30;99.80;;;;;;5113910;28;20040;-64
2021/03/06 02:26:25;;;;;;;13.00;3.20;;;0.40;99.60;;;;;;5106662;28;20042;-64
2021/03/06 02:29:37;;;;;;;7.63;3.58;;;0.50;99.90;;;;;;5109917;28;20114;-64
2021/03/06 02:32:27;;;;;;;10.07;3.33;;;0.50;99.90;;;;;;5062996;28;20044;-64
2021/03/06 02:35:03;;;;;;;11.77;3.40;;;0.50;99.90;;;;;;5112071;28;20039;-64
2021/03/06 02:37:33;;;;;;;9.38;3.13;;;0.50;99.90;;;;;;5108025;27;20036;-64
2021/03/06 02:40:00;;;;;;;11.65;2.97;;;0.50;99.90;;;;;;5113356;27;20125;-64
2021/03/06 02:42:29;;;;;;;5.70;2.88;;;0.60;99.90;;;;;;5092772;27;20038;-64
2021/03/06 02:44:56;;;;;;;7.82;3.03;;;0.70;99.80;;;;;;5109706;27;20031;-64
2021/03/06 02:47:23;;;;;;;9.65;3.33;;;0.60;99.60;;;;;;5109112;27;20405;-64
2021/03/06 02:49:56;;;;;;;8.43;3.20;;;0.60;99.50;;;;;;5112037;28;20039;-64
2021/03/06 02:52:22;;;;;;;12.48;3.75;;;0.60;99.50;;;;;;5110197;28;20126;-64
2021/03/06 02:54:50;;;;;;;12.50;3.55;;;0.60;99.90;;;;;;5113444;27;20035;-64
2021/03/06 02:57:42;;;;;;;7.30;3.15;;;0.60;99.90;;;;;;5112661;27;20035;-64
2021/03/06 03:00:37;;;;;;;11.15;4.00;;;0.70;99.90;;;;;;5106627;27;20044;-64
2021/03/06 03:03:15;;;;;;;9.75;3.47;;;0.70;99.90;;;;;;5112480;28;20427;-64
2021/03/06 03:06:07;;;;;;;12.13;3.75;;;0.70;99.90;;;;;;5107754;28;20077;-64
2021/03/06 03:09:07;;;;;;;8.25;3.50;;;0.70;99.90;;;;;;5106851;28;20468;-64
2021/03/06 03:11:44;;;;;;;9.98;3.55;;;0.80;99.90;;;;;;5110596;28;20032;-64
2021/03/06 03:14:13;;;;;;;14.80;3.55;;;0.70;99.90;;;;;;5110359;27;20154;-64
2021/03/06 03:16:45;;;;;;;10.02;3.40;;;0.80;99.90;;;;;;5094310;28;20036;-64
2021/03/06 03:19:29;;;;;;;13.82;2.88;;;0.80;99.90;;;;;;5108139;27;20081;-64
2021/03/06 03:21:58;;;;;;;11.02;3.67;;;0.90;99.90;;;;;;5108066;28;20044;-64
2021/03/06 03:24:24;;;;;;;10.48;2.85;;;0.80;99.90;;;;;;5101604;28;20084;-64
2021/03/06 03:26:51;;;;;;;10.85;3.55;;;0.90;99.90;;;;;;5102768;28;20519;-64
2021/03/06 03:29:17;;;;;;;13.25;3.33;;;0.90;99.90;;;;;;5103883;27;20156;-64
2021/03/06 03:31:49;;;;;;;12.85;3.03;;;1.00;99.90;;;;;;5106134;28;20039;-64
2021/03/06 03:34:18;;;;;;;14.18;3.38;;;0.80;99.90;;;;;;5108727;28;20063;-64
2021/03/06 03:36:44;;;;;;;8.82;3.13;;;0.90;99.90;;;;;;5105809;27;20050;-64
2021/03/06 03:39:10;;;;;;;9.73;3.65;;;0.80;99.90;;;;;;5107702;27;20044;-64
2021/03/06 03:41:37;;;;;;;11.15;2.90;;;0.90;99.90;;;;;;5104663;27;20035;-64
2021/03/06 03:44:05;;;;;;;8.38;2.85;;;1.00;99.90;;;;;;5105427;28;20028;-64
2021/03/06 03:46:32;;;;;;;13.65;2.67;;;1.00;99.90;;;;;;5103979;27;20040;-64
2021/03/06 03:49:00;;;;;;;7.32;2.53;;;1.10;99.90;;;;;;5105379;28;20404;-64
2021/03/06 03:51:25;;;;;;;10.95;3.58;;;1.10;99.90;;;;;;5107939;27;20101;-64
2021/03/06 03:53:51;;;;;;;9.63;2.20;;;1.20;99.90;;;;;;5104489;27;20545;-64
2021/03/06 03:56:18;;;;;;;12.40;2.67;;;1.20;99.90;;;;;;5106476;28;20444;-64
2021/03/06 03:58:47;;;;;;;12.27;2.75;;;1.20;99.90;;;;;;5106738;28;20044;-64
2021/03/06 04:01:13;;;;;;;12.63;2.58;;;1.30;99.90;;;;;;5108506;27;20036;-64
2021/03/06 04:03:39;;;;;;;9.95;3.25;;;1.30;99.90;;;;;;5106258;27;20194;-65
2021/03/06 04:06:06;;;;;;;8.50;2.28;;;1.30;99.90;;;;;;5104229;27;20032;-64
2021/03/06 04:08:32;;;;;;;17.00;2.78;;;1.30;99.90;;;;;;5102383;27;21440;-64
2021/03/06 04:10:58;;;;;;;6.75;2.40;;;1.30;99.90;;;;;;5107570;28;20050;-64
2021/03/06 04:13:23;;;;;;;8.18;2.17;;;1.30;99.90;;;;;;5106666;28;20031;-64
2021/03/06 04:15:49;;;;;;;14.18;2.83;;;1.40;99.90;;;;;;5102254;27;20039;-64
2021/03/06 04:18:15;;;;;;;12.75;3.28;;;1.30;99.90;;;;;;5106143;27;20063;-64
2021/03/06 04:20:41;;;;;;;10.75;2.50;;;1.50;99.90;;;;;;5104956;27;20081;-64
2021/03/06 04:23:06;;;;;;;7.97;2.40;;;1.40;99.90;;;;;;5105806;27;20463;-64
2021/03/06 04:25:32;;;;;;;11.45;2.42;;;1.40;99.90;;;;;;5104279;27;20034;-65
2021/03/06 04:27:58;;;;;;;8.73;2.45;;;1.40;99.90;;;;;;5106973;27;20428;-64
2021/03/06 04:30:24;;;;;;;10.50;2.78;;;1.40;99.90;;;;;;5089231;28;20340;-64
2021/03/06 04:32:50;;;;;;;9.23;3.25;;;1.40;99.90;;;;;;5105624;28;20036;-65
2021/03/06 04:35:16;;;;;;;11.65;3.28;;;1.40;99.90;;;;;;5107295;27;20040;-64
2021/03/06 04:37:42;;;;;;;9.25;3.13;;;1.40;99.90;;;;;;5107934;28;20440;-64
2021/03/06 04:40:10;;;;;;;8.90;3.70;;;1.40;99.90;;;;;;5110545;28;20439;-64
2021/03/06 04:42:37;;;;;;;10.25;3.78;;;1.40;99.90;;;;;;5109871;27;20039;-64
2021/03/06 04:45:04;;;;;;;13.05;2.75;;;1.40;99.90;;;;;;5108305;27;20118;-64
2021/03/06 04:47:30;;;;;;;8.27;2.60;;;1.40;99.90;;;;;;5110289;28;20038;-64
2021/03/06 04:49:55;;;;;;;14.35;4.43;;;1.40;99.90;;;;;;5110539;27;20032;-65
2021/03/06 04:52:21;;;;;;;7.95;2.72;;;1.40;99.90;;;;;;5105499;27;20028;-64
2021/03/06 04:54:47;;;;;;;8.32;2.72;;;1.50;99.90;;;;;;5108017;27;20481;-64
2021/03/06 04:57:13;;;;;;;10.85;2.70;;;1.50;99.90;;;;;;5092644;28;20035;-64
2021/03/06 04:59:40;;;;;;;10.45;2.97;;;1.50;99.90;;;;;;5091597;28;20062;-64
2021/03/06 05:02:05;;;;;;;8.82;3.25;;;1.70;99.90;;;;;;5109596;28;20546;-65
2021/03/06 05:04:31;;;;;;;10.15;2.42;;;1.50;99.90;;;;;;5106315;27;20039;-64
2021/03/06 05:06:58;;;;;;;10.43;3.03;;;1.30;99.90;;;;;;5109137;27;20070;-64
2021/03/06 05:09:23;;;;;;;11.10;2.95;;;1.30;99.90;;;;;;5107242;28;20452;-64
2021/03/06 05:11:49;;;;;;;13.60;3.45;;;1.30;99.90;;;;;;5107732;27;20073;-64
2021/03/06 05:14:15;;;;;;;10.68;3.33;;;1.20;99.90;;;;;;5108000;27;20088;-64
2021/03/06 05:16:40;;;;;;;14.95;3.13;;;1.30;99.90;;;;;;5110221;28;20035;-64
2021/03/06 05:19:06;;;;;;;10.15;2.55;;;1.30;99.90;;;;;;5108908;27;20039;-65
2021/03/06 05:21:32;;;;;;;10.43;2.70;;;1.40;99.90;;;;;;5109674;28;20039;-64
2021/03/06 05:23:57;;;;;;;7.95;2.60;;;1.40;99.90;;;;;;5107776;27;20039;-64
2021/03/06 05:26:23;;;;;;;12.48;2.58;;;1.50;99.90;;;;;;5109644;27;20036;-64
2021/03/06 05:28:49;;;;;;;9.13;3.22;;;1.60;99.90;;;;;;5104827;28;20466;-65
2021/03/06 05:31:15;;;;;;;9.75;3.03;;;1.60;99.90;;;;;;5109832;28;20487;-64
2021/03/06 05:33:40;;;;;;;9.25;3.05;;;1.60;99.90;;;;;;5107922;27;20482;-65
2021/03/06 05:36:06;;;;;;;14.90;3.17;;;1.60;99.90;;;;;;5089983;28;20047;-65
2021/03/06 05:38:32;;;;;;;13.68;2.95;;;1.60;99.90;;;;;;5107663;28;20035;-64
2021/03/06 05:40:59;;;;;;;10.48;2.42;;;1.60;99.90;;;;;;5106988;28;20046;-65
2021/03/06 05:43:25;;;;;;;9.07;2.25;;;1.60;99.90;;;;;;5108875;27;20118;-65
2021/03/06 05:45:50;;;;;;;11.35;3.10;;;1.70;99.90;;;;;;5107469;28;20545;-64
2021/03/06 05:48:17;;;;;;;12.93;3.03;;;1.70;99.90;;;;;;5110423;28;20047;-64
2021/03/06 05:50:45;;;;;;;8.43;2.58;;;1.70;99.90;;;;;;5106627;28;20028;-65
2021/03/06 05:53:15;;;;;;;13.80;3.03;;;1.70;99.90;;;;;;5104901;28;20114;-64
2021/03/06 05:55:50;;;;;;;18.55;3.65;;;1.70;99.90;;;;;;5108983;28;20045;-64
2021/03/06 05:58:19;;;;;;;10.88;2.40;;;1.80;99.90;;;;;;5108931;28;20085;-65
2021/03/06 06:00:46;;;;;;;10.15;2.65;;;1.70;99.90;;;;;;5106392;28;20101;-65
2021/03/06 06:03:14;;;;;;;11.18;2.00;;;1.70;99.90;;;;;;5109049;28;20051;-65
2021/03/06 06:05:40;;;;;;;7.85;1.50;;;1.90;99.90;;;;;;5107325;28;20032;-65
2021/03/06 06:08:08;;;;;;;7.75;2.53;;;1.80;99.90;;;;;;5107981;28;20042;-64
2021/03/06 06:10:35;;;;;;;6.95;1.98;;;1.80;99.90;;;;;;5103492;28;20032;-65
2021/03/06 06:13:00;;;;;;;12.63;2.13;;;1.80;99.90;;;;;;5109341;28;20039;-65
2021/03/06 06:15:27;;;;;;;8.68;2.20;;;1.90;99.90;;;;;;5107130;28;20031;-65
2021/03/06 06:17:53;;;;;;;7.63;2.40;;;1.80;99.90;;;;;;5109278;28;20039;-64
2021/03/06 06:20:21;;;;;;;11.85;2.50;;;1.80;99.90;;;;;;5110671;28;20395;-65
2021/03/06 06:22:47;;;;;;;9.55;2.17;;;2.00;99.90;;;;;;5109655;28;20032;-65
2021/03/06 06:25:34;;;;;;;8.30;2.00;;;1.80;99.90;;;;;;5107571;28;20385;-64
2021/03/06 06:28:00;;;;;;;13.13;2.10;;;1.80;99.90;;;;;;5108555;28;20457;-65
2021/03/06 06:30:26;;;;;;;9.93;2.08;;;1.80;99.90;;;;;;5109936;28;20397;-65
2021/03/06 06:32:52;;;;;;;13.02;3.00;;;1.90;99.90;;;;;;5109944;28;20031;-65
2021/03/06 06:35:18;;;;;;;8.57;1.80;;;1.90;99.90;;;;;;5111046;28;20478;-65
2021/03/06 06:38:04;;;;;;;9.07;1.80;;;1.90;99.90;;;;;;5107450;28;20134;-65
2021/03/06 06:40:32;;;;;;;7.90;1.90;;;1.90;99.90;;;;;;5108855;28;20043;-65
2021/03/06 06:42:58;;;;;;;4.95;1.60;;;1.90;99.90;;;;;;5095944;28;20330;-65
2021/03/06 06:45:34;;;;;;;6.43;1.45;;;1.90;99.90;;;;;;5099327;28;20044;-65
2021/03/06 06:48:10;;;;;;;9.23;1.70;;;1.90;99.90;;;;;;5104504;28;20051;-65
2021/03/06 06:50:37;;;;;;;10.43;1.90;;;2.00;99.90;;;;;;5110895;28;20032;-64
2021/03/06 06:53:02;;;;;;;5.68;1.88;;;2.00;99.90;;;;;;5110823;28;20043;-64
2021/03/06 06:55:36;;;;;;;7.05;1.70;;;2.00;99.90;;;;;;5111253;27;20088;-64
2021/03/06 06:58:02;;;;;;;11.00;2.00;;;2.00;99.90;;;;;;5112226;28;20409;-64
2021/03/06 07:00:30;;;;;;;10.63;1.77;;;2.00;99.90;;;;;;5105620;28;20620;-65
2021/03/06 07:02:58;;;;;;;5.70;1.52;;;2.00;99.90;;;;;;5100665;28;20040;-65
2021/03/06 07:05:28;;;;;;;11.18;1.60;;;2.10;99.90;;;;;;5102058;27;20174;-65
2021/03/06 07:07:54;;;;;;;4.43;1.95;;;2.10;99.90;;;;;;5106603;28;20037;-65
2021/03/06 07:10:21;;;;;;;5.18;1.10;;;2.20;99.90;;;;;;5103918;28;20039;-64
2021/03/06 07:13:03;;;;;;;13.48;1.63;;;2.20;99.90;;;;;;5107277;28;20028;-65
2021/03/06 07:15:30;;;;;;;6.30;1.42;;;2.30;99.90;;;;;;5106914;28;20119;-65
2021/03/06 07:17:58;;;;;;;3.25;1.17;;;2.30;99.90;;;;;;5102046;28;20027;-65
2021/03/06 07:20:24;;;;;;;7.60;1.42;;;2.40;99.90;;;;;;5104773;28;20044;-65
2021/03/06 07:23:14;;;;;;;4.53;1.20;;;2.50;99.90;;;;;;5102817;28;20038;-65
2021/03/06 07:25:40;;;;;;;6.43;1.38;;;2.50;99.90;;;;;;5100320;28;20043;-65
2021/03/06 07:28:06;;;;;;;8.13;1.17;;;2.40;99.90;;;;;;5102725;28;20039;-65
2021/03/06 07:30:32;;;;;;;6.22;1.10;;;2.50;99.90;;;;;;5106817;28;20106;-65
2021/03/06 07:33:02;;;;;;;59.60;4.63;;;2.50;99.90;;;;;;5104230;28;20115;-65
2021/03/06 07:35:29;;;;;;;17.67;1.70;;;2.60;99.90;;;;;;5110644;27;20508;-65
2021/03/06 07:37:58;;;;;;;8.85;1.30;;;2.70;99.90;;;;;;5111252;28;20031;-65
2021/03/06 07:40:30;;;;;;;5.80;1.23;;;2.80;99.90;;;;;;5088830;28;20691;-65
2021/03/06 07:42:59;;;;;;;6.25;1.10;;;2.90;99.90;;;;;;5112054;28;20032;-65
2021/03/06 07:45:28;;;;;;;5.68;1.80;;;3.00;99.90;;;;;;5111382;28;20130;-65
2021/03/06 07:48:14;;;;;;;6.00;1.27;;;3.10;99.90;;;;;;5109768;28;20481;-65
2021/03/06 07:50:52;;;;;;;8.45;1.30;;;3.20;99.90;;;;;;5111465;27;20119;-65
2021/03/06 07:53:19;;;;;;;8.70;1.55;;;3.20;99.90;;;;;;5109593;28;20027;-66
2021/03/06 07:55:46;;;;;;;8.38;1.38;;;3.30;99.90;;;;;;5107907;28;20039;-65
2021/03/06 07:58:17;;;;;;;3.90;0.73;;;3.30;99.90;;;;;;5111390;28;20063;-66
2021/03/06 08:00:51;;;;;;;6.65;1.50;;;3.40;99.90;;;;;;5111503;28;20051;-66
2021/03/06 08:03:36;;;;;;;9.10;0.85;;;3.40;99.90;;;;;;5108381;28;20027;-66
2021/03/06 08:06:05;;;;;;;5.47;1.75;;;3.40;99.90;;;;;;5103493;28;20126;-66
2021/03/06 08:08:34;;;;;;;9.38;1.52;;;3.50;99.90;;;;;;5107495;28;20126;-66
2021/03/06 08:11:15;;;;;;;3.97;1.00;;;3.50;99.90;;;;;;5108779;28;20501;-66
2021/03/06 08:13:57;;;;;;;6.55;1.45;;;3.60;99.90;;;;;;5106279;28;20035;-66
2021/03/06 08:16:30;;;;;;;7.63;1.58;;;3.60;99.90;;;;;;5108997;28;20036;-65
2021/03/06 08:19:07;;;;;;;6.63;1.83;;;3.70;99.90;;;;;;5086051;28;20039;-66
2021/03/06 08:21:47;;;;;;;6.68;0.80;;;3.70;99.90;;;;;;5093507;28;20039;-66
2021/03/06 08:24:13;;;;;;;2.47;0.60;;;3.70;99.90;;;;;;5110314;28;20047;-66
2021/03/06 08:27:02;;;;;;;4.80;0.80;;;3.70;99.80;;;;;;5110537;27;20100;-66
2021/03/06 08:29:28;;;;;;;3.72;0.70;;;3.70;99.80;;;;;;5096451;28;20127;-66
2021/03/06 08:32:02;;;;;;;6.47;1.27;;;3.70;99.70;;;;;;5107858;28;20630;-66
2021/03/06 08:34:33;;;;;;;3.25;0.60;;;3.70;99.60;;;;;;5110679;28;20042;-66
2021/03/06 08:37:20;;;;;;;4.80;0.65;;;3.70;99.40;;;;;;5107512;28;20061;-66
2021/03/06 08:39:54;;;;;;;6.05;0.50;;;3.80;99.50;;;;;;5107083;28;20976;-66
2021/03/06 08:42:30;;;;;;;4.95;0.93;;;3.90;99.80;;;;;;5104986;28;20394;-66
2021/03/06 08:44:58;;;;;;;4.93;0.90;;;4.00;99.70;;;;;;5103153;28;20381;-66
2021/03/06 08:47:29;;;;;;;3.25;0.60;;;4.20;99.90;;;;;;5107814;28;20035;-66
2021/03/06 08:49:57;;;;;;;3.95;0.55;;;4.40;99.90;;;;;;5110977;28;20111;-66
2021/03/06 08:52:24;;;;;;;7.03;0.22;;;4.50;99.90;;;;;;5109125;28;20042;-66
2021/03/06 08:54:50;;;;;;;4.68;0.52;;;4.50;98.70;;;;;;5109662;28;20458;-66
2021/03/06 08:57:23;;;;;;;4.97;0.40;;;4.50;98.30;;;;;;5108928;28;20038;-66
2021/03/06 08:59:49;;;;;;;4.50;0.30;;;4.50;98.30;;;;;;5106656;27;20052;-67
2021/03/06 09:02:25;;;;;;;5.53;0.70;;;4.40;98.50;;;;;;5106358;28;20070;-67
2021/03/06 09:05:00;;;;;;;5.18;0.73;;;4.30;98.40;;;;;;5108980;28;21147;-66
2021/03/06 09:07:33;;;;;;;3.38;0.70;;;4.30;98.90;;;;;;5107237;28;20035;-67
2021/03/06 09:10:18;;;;;;;17.67;0.98;;;4.30;99.50;;;;;;5109019;28;20040;-67
2021/03/06 09:12:45;;;;;;;6.28;0.50;;;4.60;99.90;;;;;;5107389;28;20394;-67
2021/03/06 09:15:12;;;;;;;5.65;0.60;;;4.70;99.90;;;;;;5110346;28;20035;-67
2021/03/06 09:17:38;;;;;;;3.70;0.50;;;4.80;99.90;;;;;;5110653;28;20035;-67
2021/03/06 09:20:06;;;;;;;3.75;0.30;;;4.80;99.40;;;;;;5110773;28;20040;-67
2021/03/06 09:22:46;;;;;;;3.67;0.52;;;4.80;99.50;;;;;;5110487;28;20582;-67
2021/03/06 09:25:13;;;;;;;4.60;0.40;;;4.80;99.70;;;;;;5110595;28;20146;-67
2021/03/06 09:27:45;;;;;;;6.20;0.68;;;4.80;99.60;;;;;;5111970;27;20034;-67
2021/03/06 09:30:28;;;;;;;6.70;0.70;;;4.80;99.70;;;;;;5110483;28;20031;-67
2021/03/06 09:32:54;;;;;;;2.85;0.60;;;4.70;99.00;;;;;;5110689;27;20492;-67
2021/03/06 09:35:21;;;;;;;6.60;0.50;;;4.80;99.40;;;;;;5110165;28;20043;-67
2021/03/06 09:38:01;;;;;;;6.32;0.52;;;4.80;99.70;;;;;;5109953;28;20035;-67
2021/03/06 09:40:27;;;;;;;2.42;0.60;;;4.80;99.40;;;;;;5110280;28;20027;-67
2021/03/06 09:42:53;;;;;;;3.92;0.80;;;4.80;99.50;;;;;;5091928;28;20031;-67
2021/03/06 09:45:25;;;;;;;6.35;0.60;;;4.80;99.40;;;;;;5089754;28;20042;-67
2021/03/06 09:47:50;;;;;;;4.60;0.60;;;4.90;99.20;;;;;;5110420;28;20043;-67
2021/03/06 09:50:16;;;;;;;7.97;0.88;;;4.90;99.10;;;;;;5108014;28;20032;-67
2021/03/06 09:52:42;;;;;;;3.05;0.47;;;4.90;98.50;;;;;;5109080;28;20051;-67
2021/03/06 09:55:18;;;;;;;5.05;0.82;;;5.00;98.90;;;;;;5109257;28;20110;-67
2021/03/06 09:57:44;;;;;;;3.53;0.65;;;5.10;98.80;;;;;;5107519;28;20059;-67
2021/03/06 10:00:28;;;;;;;5.38;1.35;;;5.20;98.50;;;;;;5109973;28;20115;-67
2021/03/06 10:02:54;;;;;;;7.43;1.30;;;5.30;98.60;;;;;;5109322;28;20108;-67
2021/03/06 10:05:23;;;;;;;6.65;1.40;;;5.40;98.80;;;;;;5107269;28;20443;-67
2021/03/06 10:07:55;;;;;;;10.82;1.40;;;5.50;98.30;;;;;;5102250;28;20050;-67
2021/03/06 10:10:25;;;;;;;3.00;0.80;;;5.50;98.30;;;;;;5101926;28;20401;-67
2021/03/06 10:12:55;;;;;;;2.80;0.70;;;5.60;98.10;;;;;;5100248;28;20031;-67
2021/03/06 10:15:22;;;;;;;3.97;0.70;;;5.70;97.80;;;;;;5102250;28;20401;-67
2021/03/06 10:17:48;;;;;;;4.43;1.38;;;5.70;97.80;;;;;;5102052;28;20067;-67
2021/03/06 10:20:13;;;;;;;7.05;0.82;;;5.80;98.30;;;;;;5102229;28;20040;-67
2021/03/06 10:22:47;;;;;;;6.97;0.90;;;5.80;98.10;;;;;;5101549;28;20351;-67
2021/03/06 10:25:23;;;;;;;7.35;1.05;;;5.90;97.40;;;;;;5104769;28;20070;-67
2021/03/06 10:27:48;;;;;;;5.65;1.00;;;6.00;97.10;;;;;;5105091;28;20035;-67
2021/03/06 10:30:26;;;;;;;5.97;1.05;;;6.00;98.10;;;;;;5103281;28;20039;-67
2021/03/06 10:32:52;;;;;;;4.88;1.25;;;6.10;97.70;;;;;;5106654;28;20036;-67
2021/03/06 10:35:36;;;;;;;5.63;1.27;;;6.20;97.30;;;;;;5105652;28;20087;-67
2021/03/06 10:38:10;;;;;;;6.75;1.33;;;6.30;97.20;;;;;;5102127;28;20036;-67
2021/03/06 10:40:56;;;;;;;5.72;1.23;;;6.40;97.10;;;;;;5110020;28;20046;-67
2021/03/06 10:43:40;;;;;;;4.03;1.02;;;6.60;97.80;;;;;;5105121;28;20036;-67
2021/03/06 10:46:09;;;;;;;12.43;1.33;;;6.70;97.50;;;;;;5108354;28;20042;-67
2021/03/06 10:48:35;;;;;;;4.28;0.77;;;6.80;96.90;;;;;;5104210;28;20058;-67
2021/03/06 10:51:01;;;;;;;5.97;1.08;;;6.90;97.30;;;;;;5103809;28;20043;-67
2021/03/06 10:53:28;;;;;;;6.43;0.93;;;6.90;95.20;;;;;;5107033;28;20043;-67
2021/03/06 10:55:54;;;;;;;5.22;0.70;;;6.90;96.20;;;;;;5107872;28;20046;-67
2021/03/06 10:58:39;;;;;;;8.70;1.13;;;6.90;96.30;;;;;;5110888;28;20054;-67
2021/03/06 11:01:05;;;;;;;6.72;1.33;;;6.90;96.10;;;;;;5112320;28;20054;-67
2021/03/06 11:04:01;;;;;;;8.75;1.63;;;6.70;96.30;;;;;;5112841;28;20084;-67
2021/03/06 11:06:27;;;;;;;2.50;0.75;;;6.60;96.40;;;;;;5108627;28;20119;-67
2021/03/06 11:09:04;;;;;;;3.83;0.50;;;6.40;97.20;;;;;;5111104;28;20145;-67
2021/03/06 11:11:30;;;;;;;2.97;0.50;;;6.30;96.90;;;;;;5110880;28;20027;-67
2021/03/06 11:13:56;;;;;;;3.13;0.40;;;6.20;96.60;;;;;;5109937;28;20043;-67
2021/03/06 11:16:40;;;;;;;12.80;1.00;;;6.10;97.10;;;;;;5110545;28;20188;-67
2021/03/06 11:19:06;;;;;;;3.17;0.60;;;6.10;97.40;;;;;;5104909;28;20531;-67
2021/03/06 11:21:32;;;;;;;4.32;0.70;;;6.10;97.60;;;;;;5110265;28;20031;-67
2021/03/06 11:23:59;;;;;;;4.78;0.55;;;6.10;97.70;;;;;;5106991;28;20103;-67
2021/03/06 11:26:24;;;;;;;3.67;0.75;;;6.10;98.00;;;;;;5107690;28;20039;-67
2021/03/06 11:28:53;;;;;;;5.25;1.40;;;6.10;97.90;;;;;;5109149;28;20062;-67
2021/03/06 11:31:18;;;;;;;6.00;0.68;;;6.10;98.10;;;;;;5110754;28;20047;-67
2021/03/06 11:33:44;;;;;;;5.45;0.70;;;6.10;98.30;;;;;;5107720;28;20035;-67
2021/03/06 11:36:10;;;;;;;13.40;1.00;;;6.20;97.90;;;;;;5109668;27;20038;-67
2021/03/06 11:38:36;;;;;;;3.42;0.43;;;6.20;97.60;;;;;;5106596;28;20085;-67
2021/03/06 11:41:01;;;;;;;4.40;0.50;;;6.30;97.50;;;;;;5107370;28;20127;-67
2021/03/06 11:43:27;;;;;;;6.30;0.77;;;6.30;97.50;;;;;;5104521;28;20063;-67
2021/03/06 11:45:53;;;;;;;3.05;0.80;;;6.30;97.80;;;;;;5108960;28;20043;-67
2021/03/06 11:48:19;;;;;;;4.20;0.77;;;6.40;97.80;;;;;;5109768;27;20032;-67
2021/03/06 11:50:48;;;;;;;2.47;0.50;;;6.30;97.90;;;;;;5104912;28;20101;-67
2021/03/06 11:53:14;;;;;;;2.53;0.98;;;6.40;97.60;;;;;;5110989;28;20492;-67
2021/03/06 11:55:40;;;;;;;6.40;0.93;;;6.40;97.20;;;;;;5105787;28;20605;-67
2021/03/06 11:58:07;;;;;;;4.18;0.77;;;6.40;97.60;;;;;;5109499;28;20046;-67
2021/03/06 12:00:35;;;;;;;5.70;0.68;;;6.40;97.70;;;;;;5104673;28;20028;-67
2021/03/06 12:03:02;;;;;;;3.83;0.77;;;6.40;98.00;;;;;;5112728;27;20080;-67
2021/03/06 12:05:28;;;;;;;4.85;0.55;;;6.50;97.80;;;;;;5091593;28;20431;-67
2021/03/06 12:07:54;;;;;;;1.83;0.52;;;6.50;97.50;;;;;;5106964;28;20084;-67
2021/03/06 12:10:24;;;;;;;4.25;0.50;;;6.60;97.10;;;;;;5107521;28;20462;-67
2021/03/06 12:12:50;;;;;;;2.88;0.30;;;6.60;97.10;;;;;;5088397;28;20032;-67
2021/03/06 12:15:17;;;;;;;5.15;0.40;;;6.60;96.70;;;;;;5106408;28;20036;-67
2021/03/06 12:17:44;;;;;;;3.28;0.60;;;6.70;96.30;;;;;;5108346;28;20036;-67
2021/03/06 12:20:11;;;;;;;3.75;0.50;;;6.70;96.60;;;;;;5105581;28;20039;-67
2021/03/06 12:22:37;;;;;;;3.83;0.50;;;6.70;97.30;;;;;;5110339;28;20399;-67
2021/03/06 12:25:05;;;;;;;2.33;0.45;;;6.80;96.50;;;;;;5106022;28;20042;-67
2021/03/06 12:27:31;;;;;;;1.95;0.47;;;6.80;95.90;;;;;;5104296;28;20039;-67
2021/03/06 12:29:57;;;;;;;2.97;0.30;;;6.80;95.80;;;;;;5105809;28;20039;-67
2021/03/06 12:32:23;;;;;;;0.77;0.20;;;6.90;96.10;;;;;;5104112;28;20398;-67
2021/03/06 12:34:49;;;;;;;3.85;0.40;;;7.00;95.80;;;;;;5107117;28;20051;-67
2021/03/06 12:37:16;;;;;;;2.05;0.38;;;7.10;96.10;;;;;;5108394;28;20042;-67
2021/03/06 12:39:41;;;;;;;3.95;0.50;;;7.10;96.30;;;;;;5090524;28;20108;-67
2021/03/06 12:42:07;;;;;;;2.53;0.55;;;7.20;95.20;;;;;;5105941;28;20379;-67
2021/03/06 12:44:33;;;;;;;3.35;0.45;;;7.30;95.20;;;;;;5107302;28;20065;-67
2021/03/06 12:46:59;;;;;;;2.75;0.63;;;7.40;95.60;;;;;;5105014;28;20047;-67
2021/03/06 12:49:25;;;;;;;2.60;0.40;;;7.50;96.00;;;;;;5110107;28;20500;-67
2021/03/06 12:51:50;;;;;;;3.05;0.47;;;7.60;95.40;;;;;;5106032;28;20039;-67
2021/03/06 12:54:16;;;;;;;2.88;0.50;;;7.80;95.80;;;;;;5096898;28;20107;-67
2021/03/06 12:56:42;;;;;;;2.50;0.75;;;7.90;95.00;;;;;;5093227;27;20027;-67
2021/03/06 12:59:08;;;;;;;2.10;0.45;;;7.90;95.20;;;;;;5090830;27;20413;-67
2021/03/06 13:01:33;;;;;;;3.67;0.60;;;7.90;95.10;;;;;;5089295;28;20332;-67
2021/03/06 13:03:59;;;;;;;3.45;0.45;;;7.80;94.30;;;;;;5089952;27;20043;-67